createdAt,value
2018-09-18T00:02:08.012Z,67.92
2018-09-18T00:04:35.883Z,68.04
2018-09-18T00:07:04.130Z,66.39
2018-09-18T00:09:32.163Z,67.22
2018-09-18T00:12:00.098Z,66.30
2018-09-18T00:14:27.952Z,67.40
2018-09-18T00:16:55.929Z,69.39
2018-09-18T00:19:23.966Z,69.30
2018-09-18T00:21:51.905Z,69.49
2018-09-18T00:24:19.890Z,69.58
2018-09-18T00:26:47.805Z,69.36
2018-09-18T00:29:15.768Z,68.94
2018-09-18T00:31:43.694Z,70.03
2018-09-18T00:34:12.378Z,70.29
2018-09-18T00:36:40.315Z,70.83
2018-09-18T00:39:09.091Z,69.99
2018-09-18T00:41:37.036Z,70.83
2018-09-18T00:44:04.998Z,70.39
2018-09-18T00:46:33.150Z,70.65
2018-09-18T00:49:01.160Z,70.50
2018-09-18T00:51:29.133Z,71.03
2018-09-18T00:53:57.935Z,70.72
2018-09-18T00:56:25.912Z,71.63
2018-09-18T00:58:54.427Z,72.78
2018-09-18T01:01:22.544Z,72.01
2018-09-18T01:03:50.431Z,72.20
2018-09-18T01:06:18.455Z,72.54
2018-09-18T01:08:46.445Z,72.15
2018-09-18T01:11:14.388Z,71.83
2018-09-18T01:13:42.438Z,72.18
2018-09-18T01:16:10.422Z,71.98
2018-09-18T01:18:41.163Z,70.94
2018-09-18T01:21:09.746Z,71.46
2018-09-18T01:23:37.728Z,70.46
2018-09-18T01:26:05.963Z,69.89
2018-09-18T01:28:34.564Z,70.17
2018-09-18T01:31:02.710Z,71.36
2018-09-18T01:33:30.699Z,70.30
2018-09-18T01:35:58.682Z,71.16
2018-09-18T01:38:26.654Z,70.88
2018-09-18T01:40:54.935Z,70.16
2018-09-18T01:43:22.867Z,70.56
2018-09-18T01:45:51.071Z,69.94
2018-09-18T01:48:19.019Z,70.25
2018-09-18T01:50:47.095Z,70.19
2018-09-18T01:53:15.027Z,70.73
2018-09-18T01:55:42.951Z,70.15
2018-09-18T01:58:10.938Z,69.13
2018-09-18T02:00:38.881Z,70.94
2018-09-18T02:03:06.925Z,69.96
2018-09-18T02:05:34.929Z,70.47
2018-09-18T02:08:02.860Z,70.08
2018-09-18T02:10:30.739Z,70.20
2018-09-18T02:12:58.987Z,69.59
2018-09-18T02:15:27.025Z,68.95
2018-09-18T02:17:54.954Z,68.33
2018-09-18T02:20:22.926Z,70.07
2018-09-18T02:22:51.017Z,69.34
2018-09-18T02:25:18.970Z,69.17
2018-09-18T02:27:46.884Z,69.92
2018-09-18T02:30:14.870Z,69.15
2018-09-18T02:32:42.791Z,69.44
2018-09-18T02:35:10.678Z,69.75
2018-09-18T02:37:38.682Z,69.70
2018-09-18T02:40:07.006Z,69.37
2018-09-18T02:42:35.056Z,69.19
2018-09-18T02:45:03.070Z,69.87
2018-09-18T02:47:31.123Z,69.54
2018-09-18T02:49:59.001Z,69.55
2018-09-18T02:52:26.906Z,70.46
2018-09-18T02:54:55.056Z,72.09
2018-09-18T02:57:22.979Z,72.06
2018-09-18T02:59:51.113Z,72.07
2018-09-18T03:02:19.139Z,72.92
2018-09-18T03:04:47.124Z,72.27
2018-09-18T03:07:14.994Z,72.08
2018-09-18T03:09:42.982Z,71.73
2018-09-18T03:12:10.924Z,72.43
2018-09-18T03:14:38.834Z,72.68
2018-09-18T03:17:06.836Z,72.86
2018-09-18T03:19:34.832Z,73.38
2018-09-18T03:22:02.790Z,73.33
2018-09-18T03:24:30.786Z,73.33
2018-09-18T03:26:58.806Z,73.65
2018-09-18T03:29:26.846Z,73.21
2018-09-18T03:31:54.830Z,73.62
2018-09-18T03:34:22.766Z,73.71
2018-09-18T03:36:50.891Z,73.97
2018-09-18T03:39:18.996Z,74.05
2018-09-18T03:41:47.000Z,74.39
2018-09-18T03:44:14.952Z,74.89
2018-09-18T03:46:42.875Z,75.25
2018-09-18T03:49:10.777Z,75.41
2018-09-18T03:51:38.641Z,75.56
2018-09-18T03:54:06.813Z,76.00
2018-09-18T03:56:34.776Z,75.84
2018-09-18T03:59:02.703Z,75.35
2018-09-18T04:01:30.602Z,75.50
2018-09-18T04:03:58.706Z,75.84
2018-09-18T04:06:26.721Z,75.98
2018-09-18T04:08:54.710Z,75.98
2018-09-18T04:11:23.683Z,75.79
2018-09-18T04:13:51.768Z,76.35
2018-09-18T04:16:20.005Z,76.25
2018-09-18T04:18:48.034Z,76.63
2018-09-18T04:21:15.968Z,76.51
2018-09-18T04:23:44.039Z,77.29
2018-09-18T04:26:11.983Z,77.03
2018-09-18T04:28:40.025Z,77.26
2018-09-18T04:31:08.036Z,77.18
2018-09-18T04:33:35.897Z,77.23
2018-09-18T04:36:03.909Z,77.63
2018-09-18T04:38:31.902Z,77.55
2018-09-18T04:40:59.952Z,77.42
2018-09-18T04:43:27.938Z,78.13
2018-09-18T04:45:55.824Z,77.08
2018-09-18T04:48:23.932Z,76.02
2018-09-18T04:50:51.849Z,76.69
2018-09-18T04:53:19.704Z,76.23
2018-09-18T04:55:47.666Z,77.35
2018-09-18T04:58:15.570Z,77.81
2018-09-18T05:00:43.592Z,77.84
2018-09-18T05:03:11.973Z,77.18
2018-09-18T05:05:39.881Z,76.31
2018-09-18T05:08:07.799Z,75.94
2018-09-18T05:10:35.777Z,74.86
2018-09-18T05:13:03.862Z,75.11
2018-09-18T05:15:31.809Z,74.52
2018-09-18T05:17:59.677Z,74.62
2018-09-18T05:20:27.724Z,74.25
2018-09-18T05:22:57.924Z,74.30
2018-09-18T05:25:25.904Z,73.93
2018-09-18T05:27:53.915Z,73.34
2018-09-18T05:30:21.975Z,72.96
2018-09-18T05:32:50.003Z,72.37
2018-09-18T05:35:18.011Z,72.46
2018-09-18T05:37:46.038Z,73.22
2018-09-18T05:40:14.262Z,72.54
2018-09-18T05:42:42.315Z,71.05
2018-09-18T05:45:10.141Z,71.35
2018-09-18T05:47:38.082Z,70.91
2018-09-18T05:50:06.199Z,71.49
2018-09-18T05:52:34.192Z,70.07
2018-09-18T05:55:02.183Z,69.89
2018-09-18T05:57:30.137Z,70.62
2018-09-18T05:59:58.828Z,69.87
2018-09-18T06:02:26.926Z,70.42
2018-09-18T06:04:55.093Z,70.69
2018-09-18T06:07:23.153Z,70.72
2018-09-18T06:09:51.430Z,69.76
2018-09-18T06:12:19.462Z,68.55
2018-09-18T06:14:47.807Z,68.67
2018-09-18T06:17:16.205Z,68.37
2018-09-18T06:19:44.249Z,66.77
2018-09-18T06:22:12.194Z,66.01
2018-09-18T06:24:40.208Z,65.19
2018-09-18T06:27:08.745Z,63.30
2018-09-18T06:29:37.624Z,64.47
2018-09-18T06:34:46.928Z,63.18
2018-09-18T06:37:15.309Z,62.20
2018-09-18T06:39:45.330Z,61.54
2018-09-18T06:42:16.908Z,60.92
2018-09-18T06:45:03.223Z,59.80
2018-09-18T06:47:31.858Z,58.33
2018-09-18T06:50:03.524Z,58.48
2018-09-18T06:52:37.690Z,56.68
2018-09-18T06:55:13.823Z,52.68
2018-09-18T06:57:42.117Z,55.65
2018-09-18T07:00:11.609Z,57.56
2018-09-18T07:02:41.886Z,57.27
2018-09-18T07:05:09.977Z,55.48
2018-09-18T07:07:37.955Z,54.92
2018-09-18T07:10:07.685Z,55.65
2018-09-18T07:13:00.697Z,52.58
2018-09-18T07:15:28.978Z,50.67
2018-09-18T07:17:57.030Z,53.38
2018-09-18T07:20:25.144Z,50.36
2018-09-18T07:22:53.119Z,50.54
2018-09-18T07:25:21.283Z,47.76
2018-09-18T07:27:49.378Z,48.56
2018-09-18T07:30:17.368Z,45.74
2018-09-18T07:32:45.275Z,44.83
2018-09-18T07:35:13.424Z,43.02
2018-09-18T07:37:41.347Z,41.46
2018-09-18T07:40:09.408Z,43.67
2018-09-18T07:42:37.412Z,42.98
2018-09-18T07:45:05.439Z,44.72
2018-09-18T07:47:33.375Z,44.43
2018-09-18T07:50:01.433Z,43.55
2018-09-18T07:52:29.522Z,44.38
2018-09-18T07:54:57.631Z,43.45
2018-09-18T07:57:25.807Z,45.38
2018-09-18T07:59:54.108Z,45.77
2018-09-18T08:02:22.075Z,44.91
2018-09-18T08:04:50.848Z,46.84
2018-09-18T08:07:18.865Z,47.34
2018-09-18T08:09:46.940Z,47.35
2018-09-18T08:12:14.903Z,48.97
2018-09-18T08:14:43.042Z,50.07
2018-09-18T08:17:11.316Z,47.22
2018-09-18T08:19:39.640Z,49.02
2018-09-18T08:22:13.288Z,50.13
2018-09-18T08:24:41.486Z,48.54
2018-09-18T08:27:09.431Z,49.39
2018-09-18T08:29:37.371Z,47.58
2018-09-18T08:32:05.464Z,46.66
2018-09-18T08:34:33.675Z,44.69
2018-09-18T08:37:01.658Z,44.01
2018-09-18T08:39:29.551Z,44.79
2018-09-18T08:41:57.615Z,46.87
2018-09-18T08:44:26.418Z,46.43
2018-09-18T08:46:54.748Z,44.56
2018-09-18T08:49:22.892Z,45.28
2018-09-18T08:51:51.025Z,45.96
2018-09-18T08:54:19.012Z,44.89
2018-09-18T08:56:46.914Z,45.90
2018-09-18T08:59:15.041Z,45.08
2018-09-18T09:02:02.714Z,44.97
2018-09-18T09:04:30.756Z,45.42
2018-09-18T09:07:02.461Z,44.59
2018-09-18T09:09:30.450Z,45.16
2018-09-18T09:11:58.704Z,44.76
2018-09-18T09:14:28.190Z,45.68
2018-09-18T09:16:56.130Z,44.91
2018-09-18T09:19:43.855Z,43.99
2018-09-18T09:22:21.902Z,46.31
2018-09-18T09:24:51.875Z,46.31
2018-09-18T09:27:20.791Z,46.60
2018-09-18T09:29:50.083Z,46.51
2018-09-18T09:32:18.095Z,43.61
2018-09-18T09:34:46.014Z,43.30
2018-09-18T09:37:14.084Z,45.15
2018-09-18T09:39:42.149Z,43.46
2018-09-18T09:42:10.194Z,41.47
2018-09-18T09:44:38.229Z,40.85
2018-09-18T09:47:06.445Z,42.22
2018-09-18T09:49:34.429Z,40.87
2018-09-18T09:52:03.213Z,39.08
2018-09-18T09:54:31.235Z,40.38
2018-09-18T09:56:59.656Z,40.62
2018-09-18T09:59:28.758Z,40.05
2018-09-18T10:02:04.863Z,42.20
2018-09-18T10:04:33.076Z,41.22
2018-09-18T10:07:02.024Z,39.96
2018-09-18T10:09:30.402Z,40.11
2018-09-18T10:11:59.639Z,40.45
2018-09-18T10:14:28.181Z,39.86
2018-09-18T10:16:56.218Z,40.60
2018-09-18T10:19:24.342Z,39.37
2018-09-18T10:21:52.652Z,38.81
2018-09-18T10:24:20.817Z,39.23
2018-09-18T10:26:49.078Z,37.95
2018-09-18T10:29:17.674Z,38.82
2018-09-18T10:31:47.135Z,39.75
2018-09-18T10:34:16.193Z,39.13
2018-09-18T10:36:45.707Z,40.12
2018-09-18T10:39:14.717Z,39.61
2018-09-18T10:41:42.723Z,37.82
2018-09-18T10:44:11.279Z,37.25
2018-09-18T10:46:39.351Z,37.60
2018-09-18T10:49:07.374Z,35.49
2018-09-18T10:51:37.544Z,35.94
2018-09-18T10:54:05.619Z,34.43
2018-09-18T10:56:33.576Z,34.95
2018-09-18T10:59:01.518Z,35.45
2018-09-18T11:01:30.406Z,34.26
2018-09-18T11:03:58.638Z,32.45
2018-09-18T11:06:26.616Z,32.56
2018-09-18T11:08:56.591Z,31.35
2018-09-18T11:11:24.692Z,30.91
2018-09-18T11:13:52.904Z,30.37
2018-09-18T11:16:21.105Z,29.89
2018-09-18T11:18:49.280Z,29.83
2018-09-18T11:21:17.338Z,29.12
2018-09-18T11:23:45.641Z,31.86
2018-09-18T11:26:13.795Z,33.15
2018-09-18T11:28:41.712Z,33.18
2018-09-18T11:31:09.890Z,33.19
2018-09-18T11:33:37.886Z,33.54
2018-09-18T11:36:06.002Z,33.06
2018-09-18T11:38:35.004Z,32.50
2018-09-18T11:41:02.974Z,32.56
2018-09-18T11:43:31.049Z,31.35
2018-09-18T11:45:59.269Z,32.70
2018-09-18T11:48:27.522Z,31.52
2018-09-18T11:50:55.671Z,31.28
2018-09-18T11:53:23.899Z,29.63
2018-09-18T11:55:51.833Z,30.50
2018-09-18T11:58:19.856Z,30.47
2018-09-18T12:00:48.059Z,29.76
2018-09-18T12:03:16.064Z,31.43
2018-09-18T12:05:44.990Z,30.81
2018-09-18T12:08:13.078Z,30.53
2018-09-18T12:10:41.261Z,30.80
2018-09-18T12:13:09.356Z,30.96
2018-09-18T12:15:38.207Z,31.82
2018-09-18T12:18:06.815Z,30.93
2018-09-18T12:20:35.097Z,31.00
2018-09-18T12:23:03.070Z,31.17
2018-09-18T12:25:31.467Z,31.58
2018-09-18T12:28:00.379Z,29.99
2018-09-18T12:30:31.455Z,30.07
2018-09-18T12:33:00.525Z,28.60
2018-09-18T12:35:28.980Z,29.06
2018-09-18T12:37:57.409Z,29.68
2018-09-18T12:40:27.680Z,30.47
2018-09-18T12:42:57.176Z,30.09
2018-09-18T12:45:27.463Z,30.44
2018-09-18T12:47:56.130Z,29.39
2018-09-18T12:50:24.297Z,28.59
2018-09-18T12:52:52.995Z,29.86
2018-09-18T12:55:21.503Z,29.30
2018-09-18T12:57:49.559Z,30.11
2018-09-18T13:00:17.676Z,29.71
2018-09-18T13:02:46.504Z,28.23
2018-09-18T13:05:14.475Z,29.11
2018-09-18T13:07:42.552Z,30.84
2018-09-18T13:10:10.527Z,30.07
2018-09-18T13:12:38.609Z,30.10
2018-09-18T13:15:06.688Z,30.62
2018-09-18T13:17:35.538Z,30.40
2018-09-18T13:20:03.995Z,29.58
2018-09-18T13:22:31.860Z,28.77
2018-09-18T13:24:59.952Z,28.30
2018-09-18T13:27:28.103Z,28.06
2018-09-18T13:29:56.251Z,28.59
2018-09-18T13:32:24.249Z,29.49
2018-09-18T13:34:52.490Z,29.34
2018-09-18T13:37:20.538Z,27.67
2018-09-18T13:39:49.131Z,27.44
2018-09-18T13:42:17.126Z,27.24
2018-09-18T13:44:45.146Z,28.00
2018-09-18T13:47:13.202Z,28.12
2018-09-18T13:49:41.370Z,29.58
2018-09-18T13:52:10.487Z,31.17
2018-09-18T13:54:39.005Z,30.96
2018-09-18T13:57:08.672Z,30.62
2018-09-18T13:59:36.915Z,31.39
2018-09-18T14:02:05.239Z,31.52
2018-09-18T14:04:33.533Z,29.68
2018-09-18T14:07:01.626Z,31.15
2018-09-18T14:09:29.710Z,31.97
2018-09-18T14:11:57.752Z,32.15
2018-09-18T14:14:25.887Z,32.95
2018-09-18T14:16:53.930Z,33.72
2018-09-18T14:19:22.114Z,33.74
2018-09-18T14:21:52.103Z,33.25
2018-09-18T14:24:20.079Z,33.69
2018-09-18T14:26:48.312Z,33.30
2018-09-18T14:29:16.413Z,33.85
2018-09-18T14:31:44.435Z,33.76
2018-09-18T14:34:12.438Z,33.52
2018-09-18T14:36:41.268Z,33.92
2018-09-18T14:39:10.230Z,33.53
2018-09-18T14:41:38.752Z,33.18
2018-09-18T14:44:06.868Z,33.18
2018-09-18T14:46:35.018Z,33.66
2018-09-18T14:49:03.556Z,34.23
2018-09-18T14:51:31.495Z,34.49
2018-09-18T14:53:59.474Z,34.84
2018-09-18T14:56:27.502Z,34.68
2018-09-18T14:58:56.488Z,34.42
2018-09-18T15:01:24.615Z,34.31
2018-09-18T15:03:52.674Z,34.60
2018-09-18T15:06:20.844Z,34.89
2018-09-18T15:08:48.863Z,34.89
2018-09-18T15:11:16.818Z,35.29
2018-09-18T15:13:44.766Z,35.19
2018-09-18T15:16:15.839Z,35.17
2018-09-18T15:18:43.796Z,35.72
2018-09-18T15:21:11.791Z,36.45
2018-09-18T15:23:39.652Z,36.31
2018-09-18T15:26:07.837Z,37.79
2018-09-18T15:28:35.851Z,37.99
2018-09-18T15:31:03.979Z,38.24
2018-09-18T15:33:32.224Z,39.39
2018-09-18T15:36:00.218Z,39.31
2018-09-18T15:38:28.152Z,39.17
2018-09-18T15:40:56.065Z,39.26
2018-09-18T15:43:24.101Z,39.78
2018-09-18T15:45:52.089Z,39.15
2018-09-18T15:48:20.110Z,39.29
2018-09-18T15:50:48.465Z,39.04
2018-09-18T15:53:17.335Z,38.10
2018-09-18T15:55:45.360Z,38.07
2018-09-18T15:58:13.381Z,38.04
2018-09-18T16:00:41.554Z,38.85
2018-09-18T16:03:09.621Z,40.13
2018-09-18T16:05:48.617Z,40.85
2018-09-18T16:08:16.635Z,39.76
2018-09-18T16:10:53.548Z,40.44
2018-09-18T16:13:22.521Z,41.02
2018-09-18T16:15:50.634Z,41.54
2018-09-18T16:18:18.671Z,41.47
2018-09-18T16:20:46.670Z,41.67
2018-09-18T16:23:14.802Z,41.91
2018-09-18T16:25:42.840Z,41.47
2018-09-18T16:28:11.077Z,41.70
2018-09-18T16:30:39.133Z,42.35
2018-09-18T16:35:52.450Z,44.29
2018-09-18T16:38:20.497Z,44.40
2018-09-18T16:40:48.557Z,44.87
2018-09-18T16:43:16.477Z,45.39
2018-09-18T16:45:44.476Z,45.28
2018-09-18T16:48:12.486Z,44.89
2018-09-18T16:50:40.498Z,45.05
2018-09-18T16:53:08.505Z,45.89
2018-09-18T16:55:36.491Z,45.61
2018-09-18T16:58:04.579Z,45.45
2018-09-18T17:00:32.733Z,45.50
2018-09-18T17:03:01.451Z,45.54
2018-09-18T17:05:30.595Z,45.54
2018-09-18T17:07:59.294Z,45.26
2018-09-18T17:10:27.316Z,45.93
2018-09-18T17:12:55.514Z,45.81
2018-09-18T17:15:23.525Z,46.00
2018-09-18T17:17:51.512Z,46.49
2018-09-18T17:20:19.492Z,47.17
2018-09-18T17:22:47.481Z,46.41
2018-09-18T17:25:16.099Z,46.79
2018-09-18T17:27:44.123Z,47.02
2018-09-18T17:30:12.236Z,47.38
2018-09-18T17:32:40.295Z,47.03
2018-09-18T17:35:09.208Z,47.90
2018-09-18T17:37:39.968Z,47.00
2018-09-18T17:40:08.216Z,47.11
2018-09-18T17:42:36.224Z,47.81
2018-09-18T17:45:05.346Z,47.55
2018-09-18T17:47:34.274Z,47.75
2018-09-18T17:50:02.292Z,48.14
2018-09-18T17:52:30.335Z,47.87
2018-09-18T17:54:59.034Z,48.27
2018-09-18T17:57:26.985Z,47.96
2018-09-18T17:59:56.169Z,48.98
2018-09-18T18:02:24.183Z,49.13
2018-09-18T18:04:52.457Z,49.68
2018-09-18T18:07:20.484Z,50.42
2018-09-18T18:09:48.708Z,51.32
2018-09-18T18:12:16.730Z,51.75
2018-09-18T18:14:44.761Z,52.75
2018-09-18T18:17:12.782Z,53.62
2018-09-18T18:19:40.885Z,54.71
2018-09-18T18:22:08.906Z,54.32
2018-09-18T18:24:36.925Z,54.78
2018-09-18T18:27:04.972Z,55.40
2018-09-18T18:29:38.330Z,55.34
2018-09-18T18:32:06.415Z,55.37
2018-09-18T18:34:34.438Z,56.27
2018-09-18T18:37:02.699Z,55.64
2018-09-18T18:39:31.763Z,56.00
2018-09-18T18:41:59.844Z,56.46
2018-09-18T18:44:27.815Z,56.46
2018-09-18T18:46:55.755Z,55.66
2018-09-18T18:49:24.668Z,55.04
2018-09-18T18:51:53.073Z,54.74
2018-09-18T18:54:21.043Z,54.47
2018-09-18T18:56:49.042Z,54.23
2018-09-18T18:59:16.965Z,54.49
2018-09-18T19:01:45.048Z,55.06
2018-09-18T19:04:13.109Z,54.45
2018-09-18T19:06:41.220Z,54.72
2018-09-18T19:09:09.328Z,54.81
2018-09-18T19:11:37.336Z,55.50
2018-09-18T19:14:05.486Z,55.92
2018-09-18T19:16:33.567Z,57.22
2018-09-18T19:19:01.549Z,56.25
2018-09-18T19:21:29.576Z,55.82
2018-09-18T19:23:57.466Z,56.33
2018-09-18T19:26:25.594Z,56.63
2018-09-18T19:28:53.754Z,56.95
2018-09-18T19:31:21.753Z,57.20
2018-09-18T19:33:49.705Z,57.75
2018-09-18T19:36:17.735Z,57.98
2018-09-18T19:38:45.707Z,59.10
2018-09-18T19:41:13.755Z,59.43
2018-09-18T19:43:41.704Z,58.57
2018-09-18T19:46:09.721Z,58.71
2018-09-18T19:48:37.798Z,58.88
2018-09-18T19:51:05.911Z,60.02
2018-09-18T19:53:33.863Z,60.06
2018-09-18T19:56:01.838Z,60.36
2018-09-18T19:58:29.743Z,60.41
2018-09-18T20:00:57.746Z,60.55
2018-09-18T20:03:25.918Z,60.66
2018-09-18T20:05:53.972Z,61.32
2018-09-18T20:08:21.962Z,60.36
2018-09-18T20:10:50.082Z,60.68
2018-09-18T20:13:18.039Z,61.53
2018-09-18T20:15:46.150Z,61.57
2018-09-18T20:18:14.067Z,61.75
2018-09-18T20:20:42.022Z,61.44
2018-09-18T20:23:09.950Z,60.84
2018-09-18T20:25:37.918Z,60.50
2018-09-18T20:28:05.893Z,61.87
2018-09-18T20:30:33.956Z,62.50
2018-09-18T20:33:01.905Z,63.25
2018-09-18T20:35:29.901Z,63.98
2018-09-18T20:37:57.861Z,63.66
2018-09-18T20:40:26.009Z,63.16
2018-09-18T20:42:53.923Z,63.05
2018-09-18T20:45:21.898Z,63.12
2018-09-18T20:47:49.756Z,62.62
2018-09-18T20:50:21.877Z,64.20
2018-09-18T20:52:50.867Z,63.21
2018-09-18T20:55:18.902Z,62.47
2018-09-18T20:57:46.938Z,61.39
2018-09-18T21:00:14.821Z,62.24
2018-09-18T21:02:42.706Z,62.08
2018-09-18T21:05:10.826Z,62.51
2018-09-18T21:07:38.832Z,63.47
2018-09-18T21:10:06.900Z,63.46
2018-09-18T21:12:34.793Z,62.89
2018-09-18T21:15:03.033Z,62.85
2018-09-18T21:17:32.981Z,62.30
2018-09-18T21:20:00.999Z,62.46
2018-09-18T21:22:29.007Z,62.62
2018-09-18T21:25:17.433Z,62.12
2018-09-18T21:27:46.553Z,62.23
2018-09-18T21:30:15.496Z,62.36
2018-09-18T21:32:44.304Z,62.39
2018-09-18T21:35:12.414Z,63.08
2018-09-18T21:37:40.750Z,63.56
2018-09-18T21:40:08.776Z,63.38
2018-09-18T21:42:36.737Z,64.21
2018-09-18T21:45:04.770Z,64.31
2018-09-18T21:47:32.703Z,64.66
2018-09-18T21:50:00.642Z,65.14
2018-09-18T21:52:28.713Z,65.34
2018-09-18T21:54:56.858Z,66.03
2018-09-18T21:57:24.939Z,65.72
2018-09-18T21:59:53.071Z,65.82
2018-09-18T22:02:20.962Z,65.92
2018-09-18T22:04:49.299Z,64.84
2018-09-18T22:07:17.274Z,63.91
2018-09-18T22:09:45.154Z,63.15
2018-09-18T22:12:13.106Z,63.13
2018-09-18T22:14:41.079Z,63.00
2018-09-18T22:17:09.198Z,63.86
2018-09-18T22:19:37.326Z,63.71
2018-09-18T22:22:05.382Z,64.65
2018-09-18T22:24:33.437Z,64.56
2018-09-18T22:27:01.956Z,64.45
2018-09-18T22:29:29.994Z,64.25
2018-09-18T22:31:57.926Z,66.77
2018-09-18T22:34:25.918Z,66.48
2018-09-18T22:36:54.872Z,67.16
2018-09-18T22:39:23.050Z,65.70
2018-09-18T22:41:51.046Z,66.14
2018-09-18T22:44:18.993Z,64.73
2018-09-18T22:46:47.029Z,65.48
2018-09-18T22:49:14.930Z,66.07
2018-09-18T22:51:42.868Z,65.12
2018-09-18T22:54:10.829Z,65.29
2018-09-18T22:56:38.794Z,65.50
2018-09-18T22:59:06.800Z,66.00
2018-09-18T23:01:34.746Z,64.36
2018-09-18T23:04:02.671Z,63.92
2018-09-18T23:06:30.780Z,63.67
2018-09-18T23:08:58.713Z,64.25
2018-09-18T23:11:26.779Z,63.97
2018-09-18T23:13:54.778Z,63.90
2018-09-18T23:16:22.676Z,64.46
2018-09-18T23:18:50.732Z,65.79
2018-09-18T23:21:18.604Z,66.45
2018-09-18T23:23:46.557Z,66.68
2018-09-18T23:26:14.594Z,66.26
2018-09-18T23:28:42.475Z,66.43
2018-09-18T23:31:10.435Z,66.99
2018-09-18T23:33:38.491Z,66.39
2018-09-18T23:36:06.385Z,66.29
2018-09-18T23:38:34.331Z,66.42
2018-09-18T23:41:02.274Z,66.18
2018-09-18T23:43:30.244Z,66.17
2018-09-18T23:45:58.918Z,65.55
2018-09-18T23:48:26.825Z,65.29
2018-09-18T23:50:55.762Z,64.87
2018-09-18T23:53:24.531Z,66.25
2018-09-18T23:55:52.447Z,66.45
2018-09-18T23:58:20.324Z,65.56
